Time;durP1;ratioP1;P1;durP2;ratioP2;P2;SDS_P1;SDS_P2;PMS_P1;PMS_P2;Temp;Humidity;BMP_temperature;BMP_pressure;BME280_temperature;BME280_humidity;BME280_pressure;Samples;Min_cycle;Max_cycle;Signal;HPM_P1;HPM_P2
2022/12/13 00:00:13;;;;;;;0.00;0.00;;;-2.70;99.90;;;;;;5067319;28;20288;-79
2022/12/13 00:02:40;;;;;;;0.10;0.10;;;-2.70;99.90;;;;;;5050449;28;20192;-79
2022/12/13 00:05:06;;;;;;;0.10;0.10;;;-2.70;99.90;;;;;;5050174;28;20278;-80
2022/12/13 00:07:33;;;;;;;0.10;0.10;;;-2.70;99.90;;;;;;5053318;28;20763;-79
2022/12/13 00:09:59;;;;;;;0.00;0.00;;;-2.70;99.90;;;;;;5066270;28;20185;-79
2022/12/13 00:12:24;;;;;;;0.00;0.00;;;-2.80;99.90;;;;;;5066536;28;20200;-79
2022/12/13 00:14:50;;;;;;;0.00;0.00;;;-2.70;99.90;;;;;;5066908;28;20188;-80
2022/12/13 00:17:15;;;;;;;0.00;0.00;;;-2.70;99.90;;;;;;5067091;28;20353;-80
2022/12/13 00:19:41;;;;;;;0.10;0.10;;;-2.70;99.90;;;;;;5066063;28;20603;-79
2022/12/13 00:22:06;;;;;;;0.10;0.10;;;-2.80;99.90;;;;;;5066804;28;20542;-79
2022/12/13 00:24:32;;;;;;;0.10;0.10;;;-2.80;99.90;;;;;;5067470;28;20535;-77
2022/12/13 00:26:57;;;;;;;0.10;0.10;;;-2.80;99.90;;;;;;5065630;28;20191;-79
2022/12/13 00:29:23;;;;;;;0.10;0.10;;;-2.80;99.90;;;;;;5065846;28;20182;-78
2022/12/13 00:31:49;;;;;;;0.00;0.00;;;-2.80;99.90;;;;;;5051276;28;20575;-79
2022/12/13 00:34:14;;;;;;;0.10;0.10;;;-2.80;99.90;;;;;;5066185;28;22194;-79
2022/12/13 00:36:40;;;;;;;0.10;0.10;;;-2.90;99.90;;;;;;5051531;28;20188;-79
2022/12/13 00:39:05;;;;;;;0.00;0.00;;;-2.90;99.90;;;;;;5053037;28;20213;-79
2022/12/13 00:41:34;;;;;;;0.10;0.10;;;-2.90;99.90;;;;;;5051182;28;20653;-79
2022/12/13 00:44:01;;;;;;;0.10;0.10;;;-2.80;99.90;;;;;;5066324;28;20331;-79
2022/12/13 00:46:27;;;;;;;0.10;0.10;;;-2.90;99.90;;;;;;5065095;28;20191;-80
2022/12/13 00:48:55;;;;;;;0.10;0.10;;;-2.90;99.90;;;;;;5051937;28;20212;-79
2022/12/13 00:51:22;;;;;;;0.10;0.10;;;-3.00;99.90;;;;;;5051888;28;20217;-79
2022/12/13 00:53:48;;;;;;;0.03;0.03;;;-3.00;99.90;;;;;;5050199;28;20202;-80
2022/12/13 00:56:18;;;;;;;3.77;3.40;;;-3.10;99.90;;;;;;5051903;28;20188;-80
2022/12/13 00:58:44;;;;;;;0.00;0.00;;;-3.10;99.90;;;;;;5050612;28;20212;-79
2022/12/13 01:01:12;;;;;;;0.10;0.10;;;-3.10;99.90;;;;;;5067991;28;20188;-79
2022/12/13 01:03:39;;;;;;;0.10;0.10;;;-3.10;99.90;;;;;;5070428;28;20181;-80
2022/12/13 01:06:13;;;;;;;0.10;0.10;;;-3.10;99.90;;;;;;5069070;28;20189;-80
2022/12/13 01:08:39;;;;;;;8.60;7.93;;;-3.10;99.90;;;;;;5055238;28;20290;-78
2022/12/13 01:11:06;;;;;;;0.00;0.00;;;-3.10;99.90;;;;;;5072400;28;20936;-79
2022/12/13 01:13:32;;;;;;;0.10;0.10;;;-3.10;99.90;;;;;;5055763;28;20271;-80
2022/12/13 01:16:01;;;;;;;0.10;0.10;;;-3.20;99.90;;;;;;5073056;28;20196;-79
2022/12/13 01:18:27;;;;;;;0.10;0.10;;;-3.20;99.90;;;;;;5070449;28;20211;-79
2022/12/13 01:21:06;;;;;;;0.10;0.10;;;-3.20;99.90;;;;;;5070282;28;20193;-80
2022/12/13 01:23:33;;;;;;;0.10;0.10;;;-3.20;99.90;;;;;;5071981;28;20178;-80
2022/12/13 01:26:02;;;;;;;0.10;0.10;;;-3.20;99.90;;;;;;5072739;28;20286;-80
2022/12/13 01:28:28;;;;;;;0.10;0.10;;;-3.20;99.90;;;;;;5070135;28;20214;-79
2022/12/13 01:30:55;;;;;;;0.00;0.00;;;-3.20;99.90;;;;;;5071964;28;20196;-80
2022/12/13 01:33:21;;;;;;;0.10;0.10;;;-3.30;99.90;;;;;;5055417;28;20188;-80
2022/12/13 01:35:47;;;;;;;0.10;0.10;;;-3.20;99.90;;;;;;5070717;28;20662;-80
2022/12/13 01:38:12;;;;;;;0.20;0.20;;;-3.30;99.90;;;;;;5054789;28;20206;-80
2022/12/13 01:40:57;;;;;;;4.03;3.73;;;-3.30;99.90;;;;;;5069234;28;20189;-79
2022/12/13 01:43:25;;;;;;;0.10;0.10;;;-3.30;99.90;;;;;;5068101;28;20237;-80
2022/12/13 01:45:51;;;;;;;0.10;0.10;;;-3.20;99.90;;;;;;5054776;28;20609;-80
2022/12/13 01:48:31;;;;;;;0.10;0.10;;;-3.20;99.90;;;;;;5069699;28;20261;-79
2022/12/13 01:51:01;;;;;;;0.10;0.10;;;-3.20;99.90;;;;;;5072206;28;20208;-79
2022/12/13 01:53:29;;;;;;;0.10;0.10;;;-3.30;99.90;;;;;;5068730;28;20238;-80
2022/12/13 01:56:04;;;;;;;0.10;0.10;;;-3.30;99.90;;;;;;5054480;28;20648;-80
2022/12/13 01:58:30;;;;;;;0.03;0.03;;;-3.30;99.90;;;;;;5052129;28;20262;-80
2022/12/13 02:00:57;;;;;;;0.10;0.10;;;-3.30;99.90;;;;;;5067920;28;20193;-80
2022/12/13 02:03:23;;;;;;;0.10;0.10;;;-3.30;99.90;;;;;;5069056;28;20178;-79
2022/12/13 02:06:15;;;;;;;0.10;0.10;;;-3.30;99.90;;;;;;5070164;28;20248;-78
2022/12/13 02:08:43;;;;;;;0.07;0.07;;;-3.40;99.90;;;;;;5053493;28;20686;-79
2022/12/13 02:11:09;;;;;;;0.10;0.10;;;-3.30;99.90;;;;;;5055034;28;20239;-79
2022/12/13 02:13:35;;;;;;;0.10;0.10;;;-3.30;99.90;;;;;;5054995;28;20184;-80
2022/12/13 02:16:18;;;;;;;0.10;0.10;;;-3.40;99.90;;;;;;5068109;28;20193;-80
2022/12/13 02:19:02;;;;;;;0.10;0.10;;;-3.40;99.90;;;;;;5053068;28;20217;-79
2022/12/13 02:21:37;;;;;;;0.10;0.10;;;-3.40;99.90;;;;;;5054166;28;20827;-79
2022/12/13 02:24:32;;;;;;;0.00;0.00;;;-3.40;99.90;;;;;;5068462;28;20545;-80
2022/12/13 02:27:09;;;;;;;0.10;0.10;;;-3.50;99.90;;;;;;5052740;28;20632;-80
2022/12/13 02:30:11;;;;;;;0.10;0.10;;;-3.50;99.90;;;;;;5066324;28;20617;-79
2022/12/13 02:33:05;;;;;;;0.10;0.10;;;-3.50;99.90;;;;;;5050935;28;20655;-80
2022/12/13 02:35:56;;;;;;;0.07;0.07;;;-3.50;99.90;;;;;;5052353;28;20195;-80
2022/12/13 02:38:28;;;;;;;0.10;0.10;;;-3.50;99.90;;;;;;5041824;28;20233;-79
2022/12/13 02:41:15;;;;;;;0.10;0.10;;;-3.40;99.90;;;;;;5055366;28;20176;-79
2022/12/13 02:43:52;;;;;;;0.10;0.10;;;-3.40;99.90;;;;;;5054582;28;20228;-79
2022/12/13 02:46:21;;;;;;;0.10;0.10;;;-3.40;99.90;;;;;;5069583;28;20209;-80
2022/12/13 02:48:49;;;;;;;0.10;0.10;;;-3.50;99.90;;;;;;5055736;28;20201;-80
2022/12/13 02:51:16;;;;;;;0.10;0.10;;;-3.40;99.90;;;;;;5053343;28;20185;-80
2022/12/13 02:53:42;;;;;;;0.20;0.20;;;-3.40;99.90;;;;;;5054495;28;20251;-79
2022/12/13 02:56:07;;;;;;;0.10;0.10;;;-3.50;99.90;;;;;;5070199;28;20273;-79
2022/12/13 02:58:41;;;;;;;0.10;0.10;;;-3.50;99.90;;;;;;5068271;28;20300;-80
2022/12/13 03:01:18;;;;;;;0.10;0.10;;;-3.50;99.90;;;;;;5069493;28;20193;-80
2022/12/13 03:03:55;;;;;;;0.50;0.50;;;-3.50;99.90;;;;;;5068134;28;20184;-79
2022/12/13 03:06:51;;;;;;;0.10;0.10;;;-3.50;99.90;;;;;;5067348;28;20190;-80
2022/12/13 03:09:53;;;;;;;0.10;0.10;;;-3.60;99.90;;;;;;5068273;28;20271;-79
2022/12/13 03:15:23;;;;;;;0.10;0.10;;;-3.60;99.90;;;;;;5053383;28;20204;-78
2022/12/13 03:18:03;;;;;;;0.10;0.10;;;-3.60;99.90;;;;;;5054568;28;20205;-80
2022/12/13 03:20:29;;;;;;;0.10;0.10;;;-3.60;99.90;;;;;;5050883;28;20177;-80
2022/12/13 03:22:56;;;;;;;0.10;0.10;;;-3.60;99.90;;;;;;5050272;28;20239;-79
2022/12/13 03:25:25;;;;;;;0.10;0.10;;;-3.60;99.90;;;;;;5066568;28;20531;-79
2022/12/13 03:27:52;;;;;;;0.10;0.10;;;-3.60;99.90;;;;;;5053984;28;20209;-79
2022/12/13 03:30:17;;;;;;;0.10;0.10;;;-3.60;99.90;;;;;;5053512;28;20179;-79
2022/12/13 03:32:43;;;;;;;0.10;0.10;;;-3.70;99.90;;;;;;5066664;28;20230;-80
2022/12/13 03:35:08;;;;;;;0.10;0.10;;;-3.70;99.90;;;;;;5051732;28;20244;-80
2022/12/13 03:37:34;;;;;;;0.10;0.10;;;-3.70;99.90;;;;;;5068603;28;20260;-81
2022/12/13 03:40:00;;;;;;;0.10;0.10;;;-3.70;99.90;;;;;;5068156;28;20187;-79
2022/12/13 03:42:26;;;;;;;0.10;0.10;;;-3.70;99.90;;;;;;5051898;28;20179;-80
2022/12/13 03:44:51;;;;;;;0.10;0.10;;;-3.70;99.90;;;;;;5068783;28;20192;-80
2022/12/13 03:47:17;;;;;;;0.10;0.10;;;-3.70;99.90;;;;;;5066871;28;20748;-79
2022/12/13 03:49:43;;;;;;;0.10;0.10;;;-3.70;99.90;;;;;;5052673;28;20193;-81
2022/12/13 03:52:08;;;;;;;0.10;0.10;;;-3.50;99.90;;;;;;5066804;28;20667;-79
2022/12/13 03:54:34;;;;;;;0.10;0.10;;;-3.60;99.90;;;;;;5066655;28;20249;-80
2022/12/13 03:57:00;;;;;;;0.10;0.10;;;-3.60;99.90;;;;;;5067209;28;20189;-80
2022/12/13 03:59:26;;;;;;;0.00;0.00;;;-3.70;99.90;;;;;;5051317;28;20548;-80
2022/12/13 04:01:52;;;;;;;0.10;0.10;;;-3.70;99.90;;;;;;5066975;28;20543;-80
2022/12/13 04:04:17;;;;;;;0.10;0.10;;;-3.70;99.90;;;;;;5048679;28;20270;-79
2022/12/13 04:06:43;;;;;;;0.10;0.10;;;-3.70;99.90;;;;;;5066099;28;20189;-79
2022/12/13 04:09:08;;;;;;;0.10;0.10;;;-3.70;99.90;;;;;;5066922;28;20806;-80
2022/12/13 04:14:18;;;;;;;0.10;0.10;;;-3.80;99.90;;;;;;5052077;28;20226;-80
2022/12/13 04:16:44;;;;;;;0.10;0.10;;;-3.80;99.90;;;;;;5066520;28;20195;-79
2022/12/13 04:19:09;;;;;;;0.10;0.10;;;-3.90;99.90;;;;;;5066464;28;20669;-80
2022/12/13 04:21:35;;;;;;;0.10;0.10;;;-3.90;99.90;;;;;;5051702;28;20215;-80
2022/12/13 04:24:00;;;;;;;0.10;0.10;;;-3.90;99.90;;;;;;5067865;28;20188;-80
2022/12/13 04:26:26;;;;;;;0.07;0.07;;;-3.90;99.90;;;;;;5064856;28;20188;-79
2022/12/13 04:28:51;;;;;;;0.10;0.10;;;-3.90;99.90;;;;;;5051025;28;20344;-80
2022/12/13 04:31:17;;;;;;;0.10;0.10;;;-3.90;99.90;;;;;;5065339;28;20198;-79
2022/12/13 04:33:42;;;;;;;0.10;0.10;;;-3.90;99.90;;;;;;5051619;28;20187;-79
2022/12/13 04:36:08;;;;;;;0.10;0.10;;;-3.90;99.90;;;;;;5055097;28;20247;-78
2022/12/13 04:38:33;;;;;;;0.00;0.00;;;-3.90;99.90;;;;;;5054907;28;20228;-79
2022/12/13 04:41:14;;;;;;;0.10;0.10;;;-3.80;99.90;;;;;;5072543;28;20212;-81
2022/12/13 04:43:40;;;;;;;0.10;0.10;;;-3.80;99.90;;;;;;5073350;28;20711;-80
2022/12/13 04:46:05;;;;;;;0.10;0.10;;;-3.80;99.90;;;;;;5071557;28;20181;-79
2022/12/13 04:48:32;;;;;;;0.10;0.10;;;-3.70;99.90;;;;;;5056648;28;20742;-79
2022/12/13 04:50:59;;;;;;;0.10;0.10;;;-3.70;99.90;;;;;;5071685;28;20185;-79
2022/12/13 04:53:24;;;;;;;0.10;0.10;;;-3.60;99.90;;;;;;5070214;28;20196;-77
2022/12/13 04:55:50;;;;;;;0.10;0.10;;;-3.60;99.90;;;;;;5073236;28;20196;-80
2022/12/13 04:58:15;;;;;;;0.10;0.10;;;-3.60;99.90;;;;;;5070806;28;20227;-80
2022/12/13 05:00:41;;;;;;;0.10;0.10;;;-3.50;99.90;;;;;;5057090;28;20186;-79
2022/12/13 05:03:06;;;;;;;0.10;0.10;;;-3.50;99.90;;;;;;5057924;28;20622;-79
2022/12/13 05:05:32;;;;;;;0.00;0.00;;;-3.60;99.90;;;;;;5067545;28;20793;-79
2022/12/13 05:07:57;;;;;;;0.10;0.10;;;-3.60;99.90;;;;;;5070407;28;20579;-80
2022/12/13 05:10:23;;;;;;;0.10;0.10;;;-3.70;99.90;;;;;;5056755;28;20659;-79
2022/12/13 05:12:49;;;;;;;0.10;0.10;;;-3.80;99.90;;;;;;5072882;28;20200;-79
2022/12/13 05:15:14;;;;;;;0.10;0.10;;;-3.80;99.90;;;;;;5055607;28;20177;-79
2022/12/13 05:17:40;;;;;;;0.10;0.10;;;-3.90;99.90;;;;;;5055371;28;20223;-78
2022/12/13 05:20:06;;;;;;;0.10;0.10;;;-3.90;99.90;;;;;;5055393;28;20242;-79
2022/12/13 05:22:31;;;;;;;0.10;0.10;;;-3.90;99.90;;;;;;5053433;28;20238;-80
2022/12/13 05:24:57;;;;;;;0.10;0.10;;;-3.90;99.90;;;;;;5068421;28;20193;-80
2022/12/13 05:27:22;;;;;;;0.10;0.10;;;-3.90;99.90;;;;;;5068911;28;20583;-79
2022/12/13 05:29:48;;;;;;;0.10;0.10;;;-3.90;99.90;;;;;;5070464;28;20873;-81
2022/12/13 05:32:14;;;;;;;0.10;0.10;;;-3.90;99.90;;;;;;5053376;28;20652;-79
2022/12/13 05:34:39;;;;;;;0.10;0.10;;;-3.90;99.90;;;;;;5055112;28;20192;-79
2022/12/13 05:37:05;;;;;;;0.10;0.10;;;-3.90;99.90;;;;;;5048906;28;21640;-80
2022/12/13 05:39:30;;;;;;;0.10;0.10;;;-3.90;99.90;;;;;;5061226;28;20672;-79
2022/12/13 05:41:58;;;;;;;0.10;0.10;;;-3.90;99.90;;;;;;5069462;28;20227;-79
2022/12/13 05:44:24;;;;;;;0.10;0.10;;;-3.90;99.90;;;;;;5055831;28;20173;-80
2022/12/13 05:46:51;;;;;;;0.10;0.10;;;-3.90;99.90;;;;;;5050902;28;20573;-79
2022/12/13 05:49:17;;;;;;;0.10;0.10;;;-4.00;99.90;;;;;;5051774;28;20186;-80
2022/12/13 05:51:42;;;;;;;0.10;0.10;;;-4.00;99.90;;;;;;5069764;28;20199;-79
2022/12/13 05:54:08;;;;;;;0.10;0.10;;;-4.00;99.90;;;;;;5068071;28;20199;-78
2022/12/13 05:56:33;;;;;;;0.10;0.10;;;-4.10;99.90;;;;;;5066898;28;20190;-78
2022/12/13 05:58:59;;;;;;;0.10;0.10;;;-4.10;99.90;;;;;;5052487;28;20217;-78
2022/12/13 06:01:24;;;;;;;0.10;0.10;;;-4.10;99.90;;;;;;5052882;28;20192;-80
2022/12/13 06:03:50;;;;;;;0.10;0.10;;;-4.10;99.90;;;;;;5053047;28;20196;-78
2022/12/13 06:06:20;;;;;;;0.10;0.10;;;-4.00;99.90;;;;;;5052150;28;20217;-78
2022/12/13 06:08:45;;;;;;;0.10;0.10;;;-4.00;99.90;;;;;;5051293;28;20293;-78
2022/12/13 06:11:11;;;;;;;0.10;0.10;;;-4.00;99.90;;;;;;5053367;28;20653;-79
2022/12/13 06:13:36;;;;;;;0.10;0.10;;;-4.00;99.90;;;;;;5053972;28;20197;-79
2022/12/13 06:16:04;;;;;;;0.10;0.10;;;-4.00;99.90;;;;;;5053451;28;20239;-79
2022/12/13 06:18:32;;;;;;;0.10;0.10;;;-4.10;99.90;;;;;;5050112;28;20209;-79
2022/12/13 06:21:04;;;;;;;0.10;0.10;;;-4.10;99.90;;;;;;5054075;28;20182;-79
2022/12/13 06:23:31;;;;;;;0.10;0.10;;;-4.10;99.90;;;;;;5065642;28;20196;-80
2022/12/13 06:25:56;;;;;;;0.10;0.10;;;-4.10;99.90;;;;;;5057700;28;20213;-83
2022/12/13 06:28:22;;;;;;;0.10;0.10;;;-4.10;99.90;;;;;;5071958;28;20248;-79
2022/12/13 06:30:51;;;;;;;0.10;0.10;;;-4.10;99.90;;;;;;5074429;28;20190;-83
2022/12/13 06:33:18;;;;;;;0.10;0.10;;;-4.10;99.90;;;;;;5055915;28;20190;-81
2022/12/13 06:35:46;;;;;;;0.10;0.10;;;-4.10;99.90;;;;;;5069502;28;20672;-79
2022/12/13 06:38:12;;;;;;;0.10;0.10;;;-4.10;99.90;;;;;;5050560;28;20693;-80
2022/12/13 06:40:38;;;;;;;0.10;0.10;;;-4.10;99.90;;;;;;5049897;28;20183;-80
2022/12/13 06:43:04;;;;;;;0.10;0.10;;;-4.10;99.90;;;;;;5053317;28;20206;-79
2022/12/13 06:45:30;;;;;;;0.10;0.10;;;-4.10;99.90;;;;;;5068126;28;20190;-80
2022/12/13 06:47:56;;;;;;;0.10;0.10;;;-4.10;99.90;;;;;;5053750;28;20220;-79
2022/12/13 06:50:22;;;;;;;0.10;0.10;;;-4.10;99.90;;;;;;5068896;28;20194;-80
2022/12/13 06:52:48;;;;;;;0.10;0.10;;;-4.10;99.90;;;;;;5066300;28;20278;-80
2022/12/13 06:55:14;;;;;;;0.10;0.10;;;-4.00;99.90;;;;;;5051692;28;20703;-81
2022/12/13 06:57:39;;;;;;;0.10;0.10;;;-4.10;99.90;;;;;;5067915;28;20312;-79
2022/12/13 07:00:06;;;;;;;0.10;0.10;;;-4.10;99.90;;;;;;5049397;28;20615;-80
2022/12/13 07:02:31;;;;;;;0.10;0.10;;;-4.10;99.90;;;;;;5051421;28;20665;-79
2022/12/13 07:04:57;;;;;;;0.10;0.10;;;-4.10;99.90;;;;;;5053737;28;20186;-79
2022/12/13 07:07:24;;;;;;;0.10;0.10;;;-4.00;99.90;;;;;;5053134;28;20302;-80
2022/12/13 07:09:50;;;;;;;0.10;0.10;;;-4.00;99.90;;;;;;5065444;28;20276;-80
2022/12/13 07:12:16;;;;;;;0.10;0.10;;;-4.00;99.90;;;;;;5066712;28;20646;-79
2022/12/13 07:14:41;;;;;;;0.10;0.10;;;-4.00;99.90;;;;;;5050728;28;20185;-80
2022/12/13 07:17:07;;;;;;;0.10;0.10;;;-4.00;99.90;;;;;;5063816;28;20327;-80
2022/12/13 07:19:33;;;;;;;0.30;0.30;;;-4.00;99.90;;;;;;5067159;28;20224;-80
2022/12/13 07:21:58;;;;;;;0.40;0.40;;;-4.00;99.90;;;;;;5065897;28;20177;-80
2022/12/13 07:24:24;;;;;;;0.10;0.10;;;-4.00;99.90;;;;;;5052005;28;20195;-80
2022/12/13 07:27:02;;;;;;;0.10;0.10;;;-3.90;99.90;;;;;;5064775;28;20184;-85
2022/12/13 07:29:28;;;;;;;0.10;0.10;;;-3.90;99.90;;;;;;5053888;28;20919;-79
2022/12/13 07:31:53;;;;;;;1.27;1.27;;;-3.90;99.90;;;;;;5070709;28;20186;-82
2022/12/13 07:34:19;;;;;;;0.10;0.10;;;-3.80;99.90;;;;;;5068162;28;20282;-81
2022/12/13 07:36:45;;;;;;;0.10;0.10;;;-3.70;99.90;;;;;;5069751;28;20192;-81
2022/12/13 07:39:10;;;;;;;0.10;0.10;;;-3.70;99.90;;;;;;5052493;28;20258;-81
2022/12/13 07:41:36;;;;;;;0.10;0.10;;;-3.70;99.90;;;;;;5062934;28;20604;-79
2022/12/13 07:44:02;;;;;;;0.10;0.10;;;-3.60;99.90;;;;;;5050881;28;20209;-80
2022/12/13 07:46:27;;;;;;;0.10;0.10;;;-3.60;99.90;;;;;;5050471;28;20181;-79
2022/12/13 07:48:53;;;;;;;0.10;0.10;;;-3.60;99.90;;;;;;5052307;28;20720;-79
2022/12/13 07:51:18;;;;;;;0.07;0.07;;;-3.60;99.90;;;;;;5066919;28;21245;-82
2022/12/13 07:53:44;;;;;;;0.10;0.10;;;-3.60;99.90;;;;;;5072180;28;20643;-82
2022/12/13 07:56:11;;;;;;;0.10;0.10;;;-3.50;99.90;;;;;;5070308;28;20323;-80
2022/12/13 07:58:37;;;;;;;0.10;0.10;;;-3.50;99.90;;;;;;5069687;28;20693;-81
2022/12/13 08:01:05;;;;;;;0.00;0.00;;;-3.40;99.90;;;;;;5055701;28;20691;-81
2022/12/13 08:03:30;;;;;;;0.10;0.10;;;-3.40;99.90;;;;;;5070410;28;20220;-81
2022/12/13 08:06:18;;;;;;;0.10;0.10;;;-3.30;99.90;;;;;;5070751;28;20637;-81
2022/12/13 08:08:44;;;;;;;0.10;0.10;;;-3.20;99.90;;;;;;5052447;28;20289;-80
2022/12/13 08:11:12;;;;;;;0.10;0.10;;;-3.20;99.90;;;;;;5070593;28;20579;-81
2022/12/13 08:13:38;;;;;;;0.10;0.10;;;-3.10;99.90;;;;;;5055384;28;20184;-81
2022/12/13 08:16:06;;;;;;;0.10;0.10;;;-3.00;99.90;;;;;;5070474;28;20230;-80
2022/12/13 08:18:32;;;;;;;0.10;0.10;;;-3.00;99.90;;;;;;5053270;28;20239;-82
2022/12/13 08:20:59;;;;;;;0.10;0.10;;;-2.80;99.90;;;;;;5069058;28;20225;-80
2022/12/13 08:23:25;;;;;;;0.10;0.10;;;-2.80;99.90;;;;;;5070595;28;20176;-82
2022/12/13 08:25:54;;;;;;;0.10;0.10;;;-2.80;99.90;;;;;;5053509;28;20188;-81
2022/12/13 08:28:21;;;;;;;0.10;0.10;;;-2.70;99.90;;;;;;5055469;28;20319;-81
2022/12/13 08:30:47;;;;;;;0.00;0.00;;;-2.70;99.90;;;;;;5067577;28;20556;-81
2022/12/13 08:33:14;;;;;;;0.10;0.10;;;-2.50;99.90;;;;;;5053335;28;20208;-81
2022/12/13 08:35:39;;;;;;;0.00;0.00;;;-2.40;99.90;;;;;;5070225;28;20185;-81
2022/12/13 08:38:05;;;;;;;0.10;0.10;;;-2.40;99.90;;;;;;5069667;28;20220;-82
2022/12/13 08:40:31;;;;;;;0.10;0.10;;;-2.20;99.90;;;;;;5070102;28;20181;-82
2022/12/13 08:42:57;;;;;;;0.03;0.03;;;-2.30;99.90;;;;;;5054351;28;20189;-82
2022/12/13 08:45:26;;;;;;;0.10;0.10;;;-2.20;99.90;;;;;;5070547;28;20646;-80
2022/12/13 08:47:52;;;;;;;0.10;0.10;;;-2.00;99.90;;;;;;5070421;28;20778;-80
2022/12/13 08:50:18;;;;;;;0.47;0.47;;;-2.00;99.90;;;;;;5070149;28;20169;-81
2022/12/13 08:52:44;;;;;;;0.10;0.10;;;-1.90;99.90;;;;;;5070239;28;20182;-81
2022/12/13 08:55:13;;;;;;;0.10;0.10;;;-1.90;99.90;;;;;;5055471;28;20255;-82
2022/12/13 08:57:40;;;;;;;0.00;0.00;;;-1.90;99.90;;;;;;5068883;28;20217;-81
2022/12/13 09:00:08;;;;;;;0.10;0.10;;;-1.80;99.90;;;;;;5068305;28;20215;-82
2022/12/13 09:02:33;;;;;;;0.10;0.10;;;-1.50;99.90;;;;;;5051840;28;20281;-80
2022/12/13 09:04:59;;;;;;;0.10;0.10;;;-1.20;99.90;;;;;;5069101;28;20300;-81
2022/12/13 09:07:24;;;;;;;0.00;0.00;;;-1.20;99.90;;;;;;5069695;28;20698;-82
2022/12/13 09:09:50;;;;;;;0.10;0.10;;;-1.30;99.90;;;;;;5067965;28;20189;-82
2022/12/13 09:12:16;;;;;;;0.10;0.10;;;-1.40;99.90;;;;;;5067075;28;20189;-82
2022/12/13 09:14:41;;;;;;;0.10;0.10;;;-1.20;99.90;;;;;;5054213;28;20193;-81
2022/12/13 09:17:07;;;;;;;0.00;0.00;;;-1.20;99.90;;;;;;5055170;28;20558;-82
2022/12/13 09:19:32;;;;;;;3.33;3.13;;;-1.10;99.90;;;;;;5069574;28;20237;-82
2022/12/13 09:21:58;;;;;;;0.10;0.10;;;-1.30;99.90;;;;;;5068586;28;20301;-81
2022/12/13 09:24:24;;;;;;;0.10;0.10;;;-1.10;99.90;;;;;;5056309;28;20265;-81
2022/12/13 09:26:50;;;;;;;0.10;0.10;;;-0.90;99.90;;;;;;5072698;28;20209;-81
2022/12/13 09:29:16;;;;;;;0.00;0.00;;;-0.60;99.90;;;;;;5059206;28;20228;-81
2022/12/13 09:31:41;;;;;;;0.10;0.10;;;-0.40;99.90;;;;;;5071064;28;20270;-81
2022/12/13 09:34:09;;;;;;;0.10;0.10;;;-0.20;99.90;;;;;;5057055;28;20321;-81
2022/12/13 09:36:34;;;;;;;0.00;0.00;;;0.00;99.90;;;;;;5057794;28;20192;-81
2022/12/13 09:39:00;;;;;;;0.10;0.10;;;0.10;99.90;;;;;;5071389;28;20209;-80
2022/12/13 09:41:36;;;;;;;0.10;0.10;;;0.00;99.90;;;;;;5061004;28;20189;-81
2022/12/13 09:44:19;;;;;;;0.03;0.03;;;-0.30;99.90;;;;;;5060353;28;20181;-80
2022/12/13 09:46:47;;;;;;;0.10;0.10;;;-0.10;99.90;;;;;;5059483;28;20178;-81
2022/12/13 09:49:23;;;;;;;0.10;0.10;;;-0.40;99.90;;;;;;5074075;28;20374;-80
2022/12/13 09:51:53;;;;;;;0.10;0.10;;;-0.60;99.90;;;;;;5058940;28;20255;-81
2022/12/13 09:54:22;;;;;;;0.10;0.10;;;-0.80;99.90;;;;;;5058918;28;20196;-81
2022/12/13 09:56:53;;;;;;;0.10;0.10;;;-0.70;99.90;;;;;;5075634;28;20205;-82
2022/12/13 09:59:28;;;;;;;0.10;0.10;;;-0.40;99.90;;;;;;5058650;28;20235;-82
2022/12/13 10:01:56;;;;;;;0.10;0.10;;;-0.50;99.90;;;;;;5059100;28;20184;-82
2022/12/13 10:04:21;;;;;;;0.10;0.10;;;-0.80;99.90;;;;;;5076059;28;20181;-80
2022/12/13 10:06:52;;;;;;;0.10;0.10;;;-0.60;99.90;;;;;;5059108;28;20216;-82
2022/12/13 10:09:18;;;;;;;0.00;0.00;;;-0.30;99.90;;;;;;5057535;28;20275;-80
2022/12/13 10:11:49;;;;;;;0.10;0.10;;;-0.30;99.90;;;;;;5073036;28;20300;-80
2022/12/13 10:14:35;;;;;;;0.10;0.10;;;-0.20;99.90;;;;;;5056646;28;20182;-81
2022/12/13 10:17:04;;;;;;;0.10;0.10;;;-0.40;99.90;;;;;;5058682;28;20177;-81
2022/12/13 10:19:38;;;;;;;0.10;0.10;;;-0.80;99.90;;;;;;5054608;28;20230;-80
2022/12/13 10:22:09;;;;;;;0.10;0.10;;;-0.50;99.90;;;;;;5055123;28;20186;-82
2022/12/13 10:24:56;;;;;;;0.10;0.10;;;-0.40;99.90;;;;;;5058093;28;20236;-80
2022/12/13 10:27:32;;;;;;;0.10;0.10;;;-0.10;99.90;;;;;;5072705;28;20231;-81
2022/12/13 10:30:11;;;;;;;0.00;0.00;;;0.00;99.90;;;;;;5057464;28;20271;-81
2022/12/13 10:32:54;;;;;;;0.10;0.10;;;-0.40;99.90;;;;;;5073074;28;20534;-80
2022/12/13 10:35:31;;;;;;;0.10;0.10;;;-0.50;99.90;;;;;;5069907;28;20194;-80
2022/12/13 10:38:19;;;;;;;0.20;0.20;;;-0.20;99.90;;;;;;5073074;28;20213;-82
2022/12/13 10:40:47;;;;;;;0.10;0.10;;;-0.20;99.90;;;;;;5071034;28;20220;-81
2022/12/13 10:43:19;;;;;;;0.10;0.10;;;-0.10;99.90;;;;;;5052357;28;20197;-80
2022/12/13 10:45:59;;;;;;;0.10;0.10;;;0.30;99.90;;;;;;5069818;28;20604;-81
2022/12/13 10:48:51;;;;;;;0.10;0.10;;;-0.10;99.90;;;;;;5068558;28;20713;-81
2022/12/13 10:51:20;;;;;;;0.10;0.10;;;-0.60;99.90;;;;;;5042008;28;20201;-82
2022/12/13 10:53:48;;;;;;;0.10;0.10;;;-0.40;99.90;;;;;;5047164;28;20607;-81
2022/12/13 10:56:16;;;;;;;0.03;0.03;;;-0.50;99.90;;;;;;5066166;28;20238;-80
2022/12/13 10:58:45;;;;;;;0.10;0.10;;;-0.80;99.90;;;;;;5053435;28;20244;-88
2022/12/13 11:01:16;;;;;;;0.10;0.10;;;-0.30;99.90;;;;;;5053183;28;20647;-80
2022/12/13 11:03:43;;;;;;;0.10;0.10;;;-0.10;99.90;;;;;;5069000;28;20178;-82
2022/12/13 11:06:16;;;;;;;0.10;0.10;;;0.20;99.90;;;;;;5053870;28;20259;-81
2022/12/13 11:08:42;;;;;;;0.00;0.00;;;-0.30;99.90;;;;;;5054032;28;20220;-81
2022/12/13 11:11:09;;;;;;;0.10;0.10;;;-0.60;99.90;;;;;;5069932;28;20186;-81
2022/12/13 11:13:41;;;;;;;0.10;0.10;;;-0.40;99.90;;;;;;5069364;28;20986;-80
2022/12/13 11:16:20;;;;;;;0.10;0.10;;;-0.30;99.90;;;;;;5052009;28;20181;-81
2022/12/13 11:18:52;;;;;;;0.10;0.10;;;-0.50;99.90;;;;;;5052591;28;20216;-81
2022/12/13 11:21:27;;;;;;;0.10;0.10;;;-0.30;99.90;;;;;;5069846;28;21064;-82
2022/12/13 11:23:59;;;;;;;0.10;0.10;;;-0.20;99.90;;;;;;5068618;28;20185;-80
2022/12/13 11:26:27;;;;;;;0.03;0.03;;;-0.30;99.90;;;;;;5052497;28;20224;-80
2022/12/13 11:29:31;;;;;;;0.03;0.03;;;0.10;99.90;;;;;;5068676;28;20217;-80
2022/12/13 11:32:14;;;;;;;0.20;0.20;;;0.20;99.90;;;;;;5020553;28;20190;-81
2022/12/13 11:35:08;;;;;;;0.10;0.10;;;0.50;99.90;;;;;;5003471;28;20183;-79
2022/12/13 11:37:39;;;;;;;0.10;0.10;;;0.80;99.90;;;;;;5044772;28;20246;-81
2022/12/13 11:40:16;;;;;;;0.10;0.10;;;0.50;99.90;;;;;;5067888;28;20197;-80
2022/12/13 11:42:58;;;;;;;0.00;0.00;;;0.10;99.90;;;;;;5050187;28;20189;-81
2022/12/13 11:45:49;;;;;;;0.10;0.10;;;0.20;99.90;;;;;;5051892;28;20248;-81
2022/12/13 11:48:33;;;;;;;0.10;0.10;;;0.20;99.90;;;;;;5051673;28;20267;-81
2022/12/13 11:51:00;;;;;;;0.10;0.10;;;0.40;99.90;;;;;;5050368;28;21106;-80
2022/12/13 11:53:40;;;;;;;0.10;0.10;;;0.70;99.90;;;;;;5067253;28;20189;-81
2022/12/13 11:56:09;;;;;;;0.10;0.10;;;0.30;99.90;;;;;;5067527;28;20182;-80
2022/12/13 11:58:46;;;;;;;0.10;0.10;;;-0.10;99.90;;;;;;5051668;28;20217;-81
2022/12/13 12:01:17;;;;;;;0.10;0.10;;;-0.20;99.90;;;;;;5066523;28;20181;-81
2022/12/13 12:03:47;;;;;;;0.00;0.00;;;-0.20;99.90;;;;;;5052514;28;20184;-81
2022/12/13 12:06:28;;;;;;;0.10;0.10;;;0.00;99.90;;;;;;5068643;28;20284;-80
2022/12/13 12:08:56;;;;;;;0.10;0.10;;;0.00;99.90;;;;;;5051814;28;20595;-80
2022/12/13 12:11:45;;;;;;;0.10;0.10;;;0.10;99.90;;;;;;5053819;28;20191;-81
2022/12/13 12:14:23;;;;;;;0.10;0.10;;;0.20;99.90;;;;;;5048307;28;20228;-80
2022/12/13 12:16:56;;;;;;;0.10;0.10;;;0.30;99.90;;;;;;5067581;28;20227;-80
2022/12/13 12:19:25;;;;;;;0.10;0.10;;;0.70;99.90;;;;;;5051404;28;20288;-81
2022/12/13 12:22:17;;;;;;;0.00;0.00;;;0.70;99.90;;;;;;5069024;28;20186;-82
2022/12/13 12:25:06;;;;;;;0.10;0.10;;;0.10;99.90;;;;;;5069673;28;20185;-81
2022/12/13 12:27:47;;;;;;;0.10;0.10;;;-0.10;99.90;;;;;;5071917;28;20237;-81
2022/12/13 12:30:19;;;;;;;0.10;0.10;;;0.20;99.90;;;;;;5067100;28;20184;-81
2022/12/13 12:33:10;;;;;;;0.10;0.10;;;0.30;99.90;;;;;;5052469;28;20208;-81
2022/12/13 12:36:02;;;;;;;0.10;0.10;;;0.20;99.90;;;;;;5052890;28;20280;-83
2022/12/13 12:39:01;;;;;;;0.03;0.03;;;0.50;99.90;;;;;;5048570;28;20311;-81
2022/12/13 12:41:54;;;;;;;0.00;0.00;;;0.50;99.90;;;;;;5053434;28;20204;-80
2022/12/13 12:44:43;;;;;;;0.10;0.10;;;0.50;99.90;;;;;;5052849;28;20184;-81
2022/12/13 12:47:28;;;;;;;0.10;0.10;;;0.40;99.90;;;;;;5064831;28;20254;-80
2022/12/13 12:50:23;;;;;;;12.40;8.83;;;0.00;99.90;;;;;;5064473;28;20634;-81
2022/12/13 12:53:12;;;;;;;0.10;0.10;;;-0.20;99.90;;;;;;5017493;28;20203;-81
2022/12/13 12:56:02;;;;;;;0.10;0.10;;;0.20;99.90;;;;;;5066123;28;20197;-81
2022/12/13 12:58:58;;;;;;;0.10;0.10;;;0.20;99.90;;;;;;5054750;28;20230;-80
2022/12/13 13:01:45;;;;;;;0.10;0.10;;;0.20;99.90;;;;;;5068877;28;20261;-81
2022/12/13 13:04:14;;;;;;;0.10;0.10;;;0.40;99.90;;;;;;5052878;28;20177;-81
2022/12/13 13:06:46;;;;;;;0.10;0.10;;;0.40;99.90;;;;;;5068552;28;20277;-80
2022/12/13 13:09:16;;;;;;;0.10;0.10;;;0.00;99.90;;;;;;5055381;28;20324;-80